Puropanmaru No.3 — JD3322 — position and weather

sailwx.info

Track history (hours):
 
Tides and Currents Weather Stations Pressure Air Temp Water Temp Dewpoint Dewpoint Depression Visibility Wind Speed Wind Dir Waves Ship Positions

Puropanmaru No.3

Last reported at 2017-Feb-24 03:32 UTC. Time now 2017-Feb-24 10:23 UTC.
Position N 34°01' E 132°37'.

Length 68 m; draft 4.2 m.

Type: Tanker. MMSI: 431003365.

Date/timePositionNaut miles runAvg speedWind from/ knotsBaromVisibWave heightAir tempDewpointWater temp
2017-Feb-24 03:32N 34°01' E 132°37'21 1.3
2017-Feb-23 11:30N 33°58' E 132°12'15 7.4
2017-Feb-23 09:25N 33°51' E 131°56'12 0.9
2017-Feb-22 19:19N 33°50' E 132°10'1012.0
2017-Feb-22 18:27N 33°50' E 132°23'1212.9
2017-Feb-22 17:33N 33°54' E 132°36'  
2017-Feb-18 08:22N 35°02' E 139°30'1012.7
2017-Feb-18 07:33N 35°07' E 139°42'1111.3
2017-Feb-18 06:33N 35°18' E 139°44'1110.8
2017-Feb-18 05:33N 35°28' E 139°49'8 1.3
2017-Feb-17 23:17N 35°30' E 139°58'3 0.3
2017-Feb-17 12:30N 35°28' E 139°56'0 0.0
2017-Feb-16 22:33N 35°28' E 139°56'0 0.0
2017-Feb-16 21:33N 35°28' E 139°56'0 0.0
2017-Feb-16 20:33N 35°28' E 139°56'0 0.0
2017-Feb-16 17:33N 35°28' E 139°56'0 0.0
2017-Feb-16 16:30N 35°28' E 139°56'0 0.0
2017-Feb-16 15:25N 35°28' E 139°56'0 0.0
2017-Feb-16 08:30N 35°28' E 139°56'1111.8
2017-Feb-16 07:34N 35°21' E 139°45'  
Track history (hours):
 
Tides and Currents Weather Stations Pressure Air Temp Water Temp Dewpoint Dewpoint Depression Visibility Wind Speed Wind Dir Waves Ship Positions

Puropanmaru No.3

Last reported at 2017-Feb-24 03:32 UTC. Time now 2017-Feb-24 10:23 UTC.
Position N 34°01' E 132°37'.

Length 68 m; draft 4.2 m.

Type: Tanker. MMSI: 431003365.

Date/timePositionNaut miles runAvg speedWind from/ knotsBaromVisibWave heightAir tempDewpointWater temp
2017-Feb-24 03:32N 34°01' E 132°37'21 1.3
2017-Feb-23 11:30N 33°58' E 132°12'15 7.4
2017-Feb-23 09:25N 33°51' E 131°56'12 0.9
2017-Feb-22 19:19N 33°50' E 132°10'1012.0
2017-Feb-22 18:27N 33°50' E 132°23'1212.9
2017-Feb-22 17:33N 33°54' E 132°36'  
2017-Feb-18 08:22N 35°02' E 139°30'1012.7
2017-Feb-18 07:33N 35°07' E 139°42'1111.3
2017-Feb-18 06:33N 35°18' E 139°44'1110.8
2017-Feb-18 05:33N 35°28' E 139°49'8 1.3
2017-Feb-17 23:17N 35°30' E 139°58'3 0.3
2017-Feb-17 12:30N 35°28' E 139°56'0 0.0
2017-Feb-16 22:33N 35°28' E 139°56'0 0.0
2017-Feb-16 21:33N 35°28' E 139°56'0 0.0
2017-Feb-16 20:33N 35°28' E 139°56'0 0.0
2017-Feb-16 17:33N 35°28' E 139°56'0 0.0
2017-Feb-16 16:30N 35°28' E 139°56'0 0.0
2017-Feb-16 15:25N 35°28' E 139°56'0 0.0
2017-Feb-16 08:30N 35°28' E 139°56'1111.8
2017-Feb-16 07:34N 35°21' E 139°45'  

Dump ship's entire track history